Time;durP1;ratioP1;P1;durP2;ratioP2;P2;SDS_P1;SDS_P2;PMS_P1;PMS_P2;Temp;Humidity;BMP_temperature;BMP_pressure;BME280_temperature;BME280_humidity;BME280_pressure;Samples;Min_cycle;Max_cycle;Signal;HPM_P1;HPM_P2
2022/06/10 00:00:14;;;;;;;9.60;6.40;;;;;;;11.84;92.37;102064.78;5007513;28;20380;-84
2022/06/10 00:02:43;;;;;;;14.73;6.88;;;;;;;11.79;92.18;102061.38;5032268;28;20403;-85
2022/06/10 00:05:12;;;;;;;10.98;6.80;;;;;;;11.77;92.59;102065.72;5032244;28;20029;-84
2022/06/10 00:07:39;;;;;;;8.32;6.28;;;;;;;11.73;93.12;102064.00;5026126;28;20026;-85
2022/06/10 00:10:05;;;;;;;14.52;6.85;;;;;;;11.71;93.26;102065.75;5012483;28;20297;-84
2022/06/10 00:12:30;;;;;;;12.18;6.70;;;;;;;11.71;93.35;102075.25;5012256;28;20226;-85
2022/06/10 00:14:55;;;;;;;11.43;6.28;;;;;;;11.65;93.41;102063.19;5012494;28;20030;-85
2022/06/10 00:17:21;;;;;;;11.77;6.65;;;;;;;11.62;93.21;102067.53;5008934;28;20402;-84
2022/06/10 00:19:46;;;;;;;10.85;6.47;;;;;;;11.57;93.51;102064.13;5023118;28;20452;-85
2022/06/10 00:22:11;;;;;;;10.43;6.35;;;;;;;11.52;93.18;102071.09;5014121;28;20030;-85
2022/06/10 00:24:36;;;;;;;11.27;6.82;;;;;;;11.54;93.86;102069.34;5031866;28;20036;-85
2022/06/10 00:27:02;;;;;;;10.15;6.72;;;;;;;11.47;93.85;102069.38;5031833;28;20025;-85
2022/06/10 00:29:27;;;;;;;10.93;6.85;;;;;;;11.44;93.55;102068.56;5032200;28;20108;-85
2022/06/10 00:31:53;;;;;;;11.90;6.50;;;;;;;11.41;93.61;102064.25;5031744;28;20108;-85
2022/06/10 00:34:19;;;;;;;12.48;7.03;;;;;;;11.34;93.98;102059.97;5031404;28;20392;-84
2022/06/10 00:36:44;;;;;;;11.40;7.03;;;;;;;11.35;94.44;102072.06;5013495;28;20075;-84
2022/06/10 00:39:10;;;;;;;14.50;7.43;;;;;;;11.32;94.02;102068.66;5013756;28;20025;-85
2022/06/10 00:41:40;;;;;;;14.02;7.20;;;;;;;11.28;94.08;102062.59;5031411;28;20083;-85
2022/06/10 00:44:31;;;;;;;12.18;7.28;;;;;;;11.28;93.86;102066.94;5013560;28;20061;-85
2022/06/10 00:46:57;;;;;;;12.65;6.88;;;;;;;11.21;94.05;102062.66;5031447;28;20055;-84
2022/06/10 00:49:23;;;;;;;11.98;6.90;;;;;;;11.21;94.51;102060.06;5025818;28;20029;-84
2022/06/10 00:51:54;;;;;;;10.70;6.93;;;;;;;11.19;95.29;102057.47;5027177;28;20021;-85
2022/06/10 00:54:37;;;;;;;12.15;6.95;;;;;;;11.19;95.02;102052.28;5031270;28;20419;-84
2022/06/10 00:57:44;;;;;;;11.43;6.97;;;;;;;11.16;94.26;102056.66;5031280;28;20053;-84
2022/06/10 01:00:18;;;;;;;10.80;6.57;;;;;;;11.10;94.63;102052.38;5028291;28;20447;-84
2022/06/10 01:02:44;;;;;;;11.55;7.10;;;;;;;11.09;95.11;102055.81;5031006;28;20032;-84
2022/06/10 01:05:16;;;;;;;11.77;7.43;;;;;;;11.06;95.36;102051.50;5029549;28;20099;-84
2022/06/10 01:08:02;;;;;;;15.70;7.30;;;;;;;11.02;95.44;102049.81;5030880;28;20573;-84
2022/06/10 01:10:33;;;;;;;11.15;7.32;;;;;;;11.05;95.56;102054.97;5031144;28;20022;-84
2022/06/10 01:13:12;;;;;;;10.27;6.95;;;;;;;11.04;95.66;102055.88;5030832;28;20491;-84
2022/06/10 01:15:51;;;;;;;11.57;7.38;;;;;;;11.03;95.59;102050.69;5012996;28;20022;-84
2022/06/10 01:18:31;;;;;;;10.82;7.18;;;;;;;11.04;96.30;102050.66;5030512;28;20080;-84
2022/06/10 01:21:25;;;;;;;10.68;7.00;;;;;;;11.06;96.82;102055.81;5030744;28;20399;-84
2022/06/10 01:24:40;;;;;;;14.68;7.80;;;;;;;11.09;96.35;102048.91;5013700;28;20036;-84
2022/06/10 01:30:40;;;;;;;12.50;7.32;;;;;;;11.12;96.63;102060.16;5030847;28;20163;-84
2022/06/10 01:33:34;;;;;;;11.20;7.10;;;;;;;11.18;97.49;102060.09;5030672;28;20117;-84
2022/06/10 01:36:20;;;;;;;13.35;7.22;;;;;;;11.22;97.63;102059.19;5030662;28;20037;-84
2022/06/10 01:39:04;;;;;;;12.77;7.45;;;;;;;11.27;97.81;102050.50;5030282;28;20416;-84
2022/06/10 01:41:57;;;;;;;13.95;7.68;;;;;;;11.34;98.11;102052.19;5030566;28;20480;-85
2022/06/10 01:44:44;;;;;;;12.88;7.50;;;;;;;11.41;97.82;102045.19;5023715;28;20120;-84
2022/06/10 01:47:40;;;;;;;14.10;7.80;;;;;;;11.49;98.38;102044.28;5012627;28;20021;-84
2022/06/10 01:50:14;;;;;;;14.00;8.15;;;;;;;11.57;98.92;102052.00;5030042;28;20029;-85
2022/06/10 01:53:24;;;;;;;12.32;7.50;;;;;;;11.62;97.63;102047.63;5012336;28;20030;-85
2022/06/10 01:56:29;;;;;;;13.27;7.50;;;;;;;11.68;97.20;102044.97;5030236;28;20459;-85
2022/06/10 01:59:01;;;;;;;13.93;7.93;;;;;;;11.76;98.50;102045.81;5030385;28;20025;-85
2022/06/10 02:01:32;;;;;;;14.70;7.47;;;;;;;11.79;98.80;102053.56;5030275;28;20104;-85
2022/06/10 02:04:15;;;;;;;13.57;7.30;;;;;;;11.83;98.50;102055.25;5029999;28;20022;-85
2022/06/10 02:06:58;;;;;;;12.00;7.20;;;;;;;11.88;99.20;102045.69;5030049;28;20614;-84
2022/06/10 02:09:29;;;;;;;13.73;7.13;;;;;;;11.98;99.02;102056.00;5029957;28;20287;-85
2022/06/10 02:12:06;;;;;;;14.32;7.57;;;;;;;12.00;99.31;102049.91;5012378;28;20033;-85
2022/06/10 02:14:39;;;;;;;12.23;7.53;;;;;;;12.06;99.22;102051.59;5029855;28;20388;-85
2022/06/10 02:17:07;;;;;;;14.57;7.63;;;;;;;12.12;99.38;102054.97;5012183;28;20458;-85
2022/06/10 02:19:45;;;;;;;12.75;7.78;;;;;;;12.16;99.81;102051.44;5017953;28;20026;-85
2022/06/10 02:22:16;;;;;;;13.23;6.93;;;;;;;12.17;99.36;102042.78;5029950;28;20083;-85
2022/06/10 02:24:46;;;;;;;14.00;7.22;;;;;;;12.25;99.92;102053.09;5012263;28;20029;-85
2022/06/10 02:27:17;;;;;;;11.38;6.47;;;;;;;12.29;99.40;102054.78;5030025;28;20452;-85
2022/06/10 02:29:59;;;;;;;14.18;7.03;;;;;;;12.35;99.68;102059.91;5011942;28;20026;-85
2022/06/10 02:32:25;;;;;;;11.27;6.72;;;;;;;12.39;99.92;102061.59;5011810;28;20041;-85
2022/06/10 02:35:36;;;;;;;12.32;6.85;;;;;;;12.43;99.50;102071.06;5048937;23;21206;-85
2022/06/10 02:38:21;;;;;;;11.77;6.18;;;;;;;12.39;99.84;102047.75;5040831;28;20087;-85
2022/06/10 02:45:01;;;;;;;12.05;6.20;;;;;;;12.59;99.22;102075.22;4975947;28;20038;-85
2022/06/10 02:51:00;;;;;;;11.65;6.03;;;;;;;12.57;99.44;102055.31;5008313;28;20045;-85
2022/06/10 03:05:12;;;;;;;;;;;;;;;;;;;;;
2022/06/10 03:07:51;;;;;;;;;;;;;;;;;;;;;
2022/06/10 03:11:01;;;;;;;14.50;6.05;;;;;;;12.85;98.36;102069.69;4975896;28;20023;-86
2022/06/10 03:14:54;;;;;;;;;;;;;;;;;;;;;
2022/06/10 03:28:01;;;;;;;10.07;5.65;;;;;;;13.04;97.67;102086.75;4913376;29;20522;-86
2022/06/10 03:45:01;;;;;;;10.10;4.05;;;;;;;13.21;93.88;102088.31;4883241;29;20056;-86
2022/06/10 03:48:08;;;;;;;13.23;4.13;;;;;;;13.25;93.45;102095.19;4904427;29;20047;-86
2022/06/10 03:55:00;;;;;;;12.48;4.20;;;;;;;13.33;96.18;102086.38;4886156;29;20033;-86
2022/06/10 04:01:00;;;;;;;11.35;3.88;;;;;;;13.33;95.66;102085.53;4847333;29;20462;-86
2022/06/10 04:11:01;;;;;;;8.68;4.20;;;;;;;13.43;96.78;102095.78;4793096;29;20064;-86
2022/06/10 04:14:00;;;;;;;7.65;3.67;;;;;;;13.54;97.27;102107.78;4802371;29;20134;-87
2022/06/10 04:21:00;;;;;;;10.50;4.00;;;;;;;13.59;97.80;102105.94;4777909;30;20536;-87
2022/06/10 04:31:01;;;;;;;10.18;4.30;;;;;;;13.68;95.91;102122.31;4808681;29;20034;-86
2022/06/10 04:34:00;;;;;;;15.20;4.65;;;;;;;13.72;96.58;102123.97;4825922;29;20046;-86
2022/06/10 04:40:39;;;;;;;11.23;4.70;;;;;;;13.68;96.76;102103.19;4902945;29;20054;-86
2022/06/10 04:47:01;;;;;;;12.15;4.63;;;;;;;13.92;96.00;102108.00;4888883;29;20595;-86
2022/06/10 04:53:02;;;;;;;12.90;5.13;;;;;;;14.15;95.51;102103.25;4837664;29;20034;-86
2022/06/10 04:56:01;;;;;;;14.20;5.32;;;;;;;14.31;96.67;102126.44;4841118;29;20040;-87
2022/06/10 05:09:01;;;;;;;15.57;5.63;;;;;;;14.43;96.12;102119.28;4848721;29;20060;-88
2022/06/10 05:15:22;;;;;;;;;;;;;;;;;;;;;
2022/06/10 05:18:57;;;;;;;17.42;6.20;;;;;;;14.38;95.45;102092.41;4855924;29;20045;-87
2022/06/10 05:29:00;;;;;;;16.23;6.27;;;;;;;14.49;96.32;102100.88;4922490;29;20028;-87
2022/06/10 05:39:00;;;;;;;16.17;5.90;;;;;;;14.60;95.51;102104.13;4923493;29;20043;-87
2022/06/10 05:46:18;;;;;;;;;;;;;;;;;;;;;
2022/06/10 05:53:00;;;;;;;10.90;5.82;;;;;;;14.80;96.00;102110.72;4896391;29;20089;-87
2022/06/10 05:56:01;;;;;;;12.60;5.38;;;;;;;14.90;92.50;102107.00;4898185;29;20093;-88
2022/06/10 05:59:29;;;;;;;;;;;;;;;;;;;;;
2022/06/10 06:02:59;;;;;;;9.88;5.10;;;;;;;15.13;94.00;102109.13;4873484;29;20455;-88
2022/06/10 06:17:40;;;;;;;12.85;5.10;;;;;;;15.57;92.65;102102.88;4882430;29;20063;-88
2022/06/10 06:28:01;;;;;;;13.27;4.90;;;;;;;16.09;90.52;102118.16;4807143;29;20047;-88
2022/06/10 06:34:32;;;;;;;;;;;;;;;;;;;;;
2022/06/10 06:38:01;;;;;;;11.50;4.03;;;;;;;16.20;89.45;102116.09;4799761;29;20055;-88
2022/06/10 07:13:02;;;;;;;9.52;2.75;;;;;;;16.99;86.37;102126.94;4837021;29;20040;-89
2022/06/10 07:23:02;;;;;;;8.13;2.75;;;;;;;17.28;83.33;102124.31;4829697;29;20416;-89
2022/06/10 07:33:00;;;;;;;8.32;2.72;;;;;;;17.88;84.56;102144.25;4893060;29;20046;-89
2022/06/10 07:36:11;;;;;;;;;;;;;;;;;;;;;
2022/06/10 07:42:39;;;;;;;10.68;3.25;;;;;;;18.26;81.98;102139.47;4908534;29;20163;-89
2022/06/10 07:46:12;;;;;;;8.15;3.00;;;;;;;18.41;80.47;102141.56;4916423;29;20047;-89
2022/06/10 07:49:09;;;;;;;6.38;2.78;;;;;;;18.54;79.68;102145.47;4901785;29;20409;-89
2022/06/10 07:55:56;;;;;;;10.77;2.70;;;;;;;18.78;77.41;102143.75;4895223;29;20134;-90
2022/06/10 07:58:57;;;;;;;11.13;2.67;;;;;;;18.97;78.78;102138.69;4857280;29;20060;-88
2022/06/10 08:17:04;;;;;;;6.18;2.20;;;;;;;19.15;76.43;102146.72;4692760;30;20084;-89
2022/06/10 08:20:34;;;;;;;;;;;;;;;;;;;;;
2022/06/10 08:24:01;;;;;;;8.63;2.25;;;;;;;19.24;76.67;102138.44;4710265;30;20052;-88
2022/06/10 08:27:01;;;;;;;7.40;2.20;;;;;;;19.32;77.85;102141.63;4711597;30;20610;-89
2022/06/10 08:34:03;;;;;;;;;;;;;;;;;;;;;
2022/06/10 08:41:20;;;;;;;10.57;2.75;;;;;;;19.73;75.09;102147.03;4782933;29;20472;-88
2022/06/10 08:48:01;;;;;;;6.07;2.03;;;;;;;20.08;71.00;102137.69;4819208;29;20118;-90
2022/06/10 08:54:59;;;;;;;6.88;2.05;;;;;;;20.10;73.16;102118.28;4875822;29;20128;-88
2022/06/10 08:58:01;;;;;;;8.38;2.40;;;;;;;20.23;68.00;102129.13;4782148;30;20043;-90
2022/06/10 09:01:02;;;;;;;11.15;2.33;;;;;;;20.22;66.50;102130.03;4854769;29;20148;-88
2022/06/10 09:07:40;;;;;;;8.65;2.50;;;;;;;20.03;66.21;102119.44;4873281;29;20527;-87
2022/06/10 09:17:37;;;;;;;;;;;;;;;;;;;;;
2022/06/10 09:34:20;;;;;;;10.48;3.03;;;;;;;22.86;63.77;102105.66;4855556;29;20037;-89
2022/06/10 09:37:09;;;;;;;;;;;;;;;;;;;;;
2022/06/10 09:43:46;;;;;;;11.02;3.17;;;;;;;23.54;61.38;102125.63;4844509;29;20051;-89
2022/06/10 09:53:20;;;;;;;9.90;2.83;;;;;;;24.24;59.73;102120.63;4956805;28;20070;-89
2022/06/10 09:56:14;;;;;;;10.82;3.55;;;;;;;24.49;58.23;102117.34;4937879;28;20035;-88
2022/06/10 09:58:40;;;;;;;11.95;3.15;;;;;;;24.30;54.07;102133.50;4941141;28;20057;-91
2022/06/10 10:01:12;;;;;;;8.90;3.30;;;;;;;23.87;55.84;102130.78;5008475;28;20127;-89
2022/06/10 10:03:43;;;;;;;9.10;3.22;;;;;;;23.60;58.39;102129.72;5030491;28;20029;-90
2022/06/10 10:06:51;;;;;;;12.93;3.55;;;;;;;23.47;59.19;102140.13;5030017;28;20400;-88
2022/06/10 10:09:41;;;;;;;11.50;3.40;;;;;;;23.27;58.27;102131.63;4996374;28;20081;-92
2022/06/10 10:12:28;;;;;;;9.82;3.30;;;;;;;23.11;58.96;102136.91;5029781;28;20025;-89
2022/06/10 10:14:59;;;;;;;8.48;3.55;;;;;;;22.86;58.32;102137.38;5028975;28;20021;-90
2022/06/10 10:17:49;;;;;;;11.20;3.30;;;;;;;22.82;60.05;102133.22;5029682;28;20025;-90
2022/06/10 10:20:22;;;;;;;11.57;3.55;;;;;;;23.00;59.57;102126.91;5018849;28;20074;-90
2022/06/10 10:23:10;;;;;;;12.90;3.50;;;;;;;23.33;58.98;102137.41;5026224;28;20030;-92
2022/06/10 10:25:39;;;;;;;8.45;3.22;;;;;;;23.17;57.70;102129.47;5024621;28;20024;-90
2022/06/10 10:28:22;;;;;;;8.88;3.45;;;;;;;23.32;59.80;102141.00;5023874;28;20033;-91
2022/06/10 10:31:27;;;;;;;10.98;3.95;;;;;;;23.30;58.55;102136.72;5028219;28;20349;-90
2022/06/10 10:33:53;;;;;;;13.00;4.10;;;;;;;23.12;57.64;102128.03;5028308;28;20133;-90
2022/06/10 10:36:44;;;;;;;9.75;3.92;;;;;;;23.14;61.07;102123.50;5026110;28;20025;-90
2022/06/10 10:39:35;;;;;;;12.57;4.20;;;;;;;23.52;57.02;102127.53;5020856;28;20103;-90
2022/06/10 10:42:16;;;;;;;7.93;4.05;;;;;;;23.71;57.54;102115.84;5026713;28;20037;-89
2022/06/10 10:44:49;;;;;;;9.20;4.30;;;;;;;23.98;56.63;102115.06;5022428;28;20088;-88
2022/06/10 10:47:16;;;;;;;9.18;4.32;;;;;;;24.18;58.08;102116.53;5026865;28;20061;-90
2022/06/10 10:50:08;;;;;;;11.68;4.15;;;;;;;24.38;58.75;102123.31;5024178;28;20080;-90
2022/06/10 10:52:33;;;;;;;11.90;3.75;;;;;;;24.58;56.16;102119.41;5009767;28;20033;-89
2022/06/10 10:55:11;;;;;;;10.37;3.77;;;;;;;24.51;57.83;102115.44;5025237;28;20079;-90
2022/06/10 10:57:40;;;;;;;9.48;3.50;;;;;;;24.30;57.35;102123.75;5025310;28;20132;-90
2022/06/10 11:00:14;;;;;;;9.60;3.67;;;;;;;24.42;57.18;102119.53;5023704;28;20026;-91
2022/06/10 11:02:42;;;;;;;9.40;4.05;;;;;;;24.43;57.35;102123.03;5027061;28;20038;-91
2022/06/10 11:05:20;;;;;;;11.35;4.35;;;;;;;24.30;56.40;102115.81;5029133;28;20522;-90
2022/06/10 11:07:46;;;;;;;9.15;4.10;;;;;;;24.08;58.30;102122.50;5015717;28;20025;-90
2022/06/10 11:10:24;;;;;;;9.23;4.47;;;;;;;24.16;56.28;102115.75;5029301;28;20048;-90
2022/06/10 11:12:50;;;;;;;11.45;4.20;;;;;;;24.09;59.05;102122.38;5029417;28;20029;-92
2022/06/10 11:15:28;;;;;;;11.05;4.75;;;;;;;23.96;55.72;102121.41;4994376;28;20041;-89
2022/06/10 11:17:56;;;;;;;10.35;4.97;;;;;;;23.83;57.78;102120.41;5029191;28;20479;-89
2022/06/10 11:20:27;;;;;;;12.20;4.90;;;;;;;23.58;57.89;102126.31;5010874;28;20660;-88
2022/06/10 11:23:24;;;;;;;10.75;4.60;;;;;;;23.50;58.36;102129.38;5008537;28;20036;-88
2022/06/10 11:26:11;;;;;;;15.02;4.78;;;;;;;23.47;58.64;102124.25;5009095;28;20036;-89
2022/06/10 11:28:39;;;;;;;12.70;4.60;;;;;;;23.34;55.36;102117.09;5011592;28;20021;-88
2022/06/10 11:31:26;;;;;;;9.57;4.28;;;;;;;23.26;59.95;102130.75;5029447;28;20044;-89
2022/06/10 11:33:55;;;;;;;9.88;4.88;;;;;;;23.19;57.68;102124.09;5023442;28;20124;-90
2022/06/10 11:36:44;;;;;;;12.40;4.50;;;;;;;23.39;59.54;102121.19;5011536;28;20029;-90
2022/06/10 11:39:20;;;;;;;11.77;4.70;;;;;;;23.38;59.43;102119.47;5013012;28;20068;-89
2022/06/10 11:42:16;;;;;;;11.30;4.85;;;;;;;23.47;59.29;102104.88;5010292;28;20111;-90
2022/06/10 11:44:47;;;;;;;9.43;4.82;;;;;;;23.65;57.43;102109.13;5005841;28;20041;-89
2022/06/10 11:47:27;;;;;;;11.23;5.38;;;;;;;23.85;57.98;102106.16;5009152;28;20022;-89
2022/06/10 11:50:20;;;;;;;11.93;5.03;;;;;;;23.77;59.44;102102.25;5013643;28;20468;-90
2022/06/10 11:53:16;;;;;;;12.60;5.27;;;;;;;23.58;58.14;102111.28;5010238;28;20434;-89
2022/06/10 11:55:44;;;;;;;7.07;4.20;;;;;;;23.46;58.91;102098.72;5010427;28;20568;-90
2022/06/10 12:01:06;;;;;;;10.23;4.53;;;;;;;23.78;58.92;102102.16;5023035;28;20466;-88
2022/06/10 12:03:57;;;;;;;8.05;4.35;;;;;;;23.81;57.08;102087.91;5011225;28;20029;-90
2022/06/10 12:06:41;;;;;;;11.52;4.40;;;;;;;23.67;57.32;102082.56;5006948;28;20030;-88
2022/06/10 12:09:29;;;;;;;15.20;4.82;;;;;;;23.81;59.30;102088.75;5008182;28;20060;-88
2022/06/10 12:12:03;;;;;;;14.98;4.57;;;;;;;23.93;57.25;102095.97;5014270;28;20036;-88
2022/06/10 12:14:37;;;;;;;8.90;4.10;;;;;;;24.23;56.51;102087.97;5013428;28;20490;-89
2022/06/10 12:17:05;;;;;;;9.10;4.30;;;;;;;24.32;57.21;102084.78;5008893;28;20029;-88
2022/06/10 12:19:36;;;;;;;11.48;4.28;;;;;;;24.13;57.39;102086.81;5011836;28;20037;-89
2022/06/10 12:22:04;;;;;;;9.30;3.92;;;;;;;24.09;59.24;102081.81;5022565;28;20507;-90
2022/06/10 12:24:31;;;;;;;9.60;3.83;;;;;;;23.97;56.93;102080.72;4999334;28;20052;-89
2022/06/10 12:27:06;;;;;;;7.47;3.78;;;;;;;23.99;55.42;102078.84;5015209;28;20100;-92
2022/06/10 12:29:44;;;;;;;8.63;3.70;;;;;;;24.01;56.12;102075.16;5000681;28;20034;-89
2022/06/10 12:32:25;;;;;;;13.23;4.07;;;;;;;24.07;53.34;102076.59;5012413;28;20029;-91
2022/06/10 12:35:19;;;;;;;7.88;3.80;;;;;;;24.10;54.10;102060.50;5006989;28;20304;-94
2022/06/10 12:37:51;;;;;;;10.70;3.45;;;;;;;24.12;53.20;102060.41;5011918;28;20034;-90
2022/06/10 12:40:51;;;;;;;6.70;3.38;;;;;;;24.18;54.61;102067.97;5013264;28;20524;-93
2022/06/10 12:43:18;;;;;;;10.68;3.95;;;;;;;24.24;53.40;102062.34;5020969;28;20033;-93
2022/06/10 12:45:50;;;;;;;6.07;3.53;;;;;;;24.11;54.60;102059.56;5010523;28;20402;-89
2022/06/10 12:48:26;;;;;;;8.45;3.45;;;;;;;24.14;55.20;102067.31;5024149;28;20036;-89
2022/06/10 12:51:25;;;;;;;7.95;3.47;;;;;;;24.09;57.22;102057.97;5004844;28;20026;-89
2022/06/10 12:53:57;;;;;;;8.57;3.28;;;;;;;24.13;55.11;102052.38;5002670;28;20041;-89
2022/06/10 12:56:32;;;;;;;8.77;3.67;;;;;;;24.32;54.15;102058.28;5010005;28;20453;-88
2022/06/10 12:59:04;;;;;;;7.68;3.05;;;;;;;24.38;54.65;102055.22;5011896;28;20037;-90
2022/06/10 13:01:29;;;;;;;9.45;3.17;;;;;;;24.34;52.27;102052.88;5013430;28;20380;-93
2022/06/10 13:03:58;;;;;;;9.07;3.05;;;;;;;24.29;56.86;102050.50;5012367;28;20464;-90
2022/06/10 13:06:47;;;;;;;8.65;3.28;;;;;;;24.18;56.62;102050.28;5009025;28;20448;-91
2022/06/10 13:09:15;;;;;;;6.68;3.10;;;;;;;24.01;52.73;102055.78;5009920;28;20100;-93
2022/06/10 13:11:50;;;;;;;9.15;3.38;;;;;;;23.92;55.08;102053.66;5010727;28;20040;-91
2022/06/10 13:14:22;;;;;;;8.32;3.40;;;;;;;23.77;55.05;102051.94;5008166;28;20484;-91
2022/06/10 13:17:07;;;;;;;9.18;3.30;;;;;;;23.71;56.07;102054.94;5010298;28;20025;-92
2022/06/10 13:19:40;;;;;;;8.20;3.35;;;;;;;23.69;54.52;102051.53;5012105;28;20025;-90
2022/06/10 13:22:17;;;;;;;8.70;3.10;;;;;;;23.72;55.56;102049.56;5010900;28;20037;-92
2022/06/10 13:24:52;;;;;;;10.90;3.55;;;;;;;23.70;55.91;102058.53;5013016;28;20029;-91
2022/06/10 13:27:30;;;;;;;9.93;3.47;;;;;;;23.67;56.59;102056.09;5006181;28;20029;-92
2022/06/10 13:29:57;;;;;;;11.80;3.53;;;;;;;23.57;53.76;102053.97;5012580;28;20030;-90
2022/06/10 13:32:27;;;;;;;8.40;3.38;;;;;;;23.41;56.45;102041.69;5012954;28;20033;-89
2022/06/10 13:34:56;;;;;;;7.68;3.70;;;;;;;23.18;58.17;102050.97;5012781;28;20483;-90
2022/06/10 13:37:23;;;;;;;7.97;3.42;;;;;;;23.08;57.82;102055.06;4998762;28;20461;-88
2022/06/10 13:39:53;;;;;;;9.23;3.40;;;;;;;22.99;56.45;102064.38;5009323;28;20508;-90
2022/06/10 13:42:27;;;;;;;8.18;3.67;;;;;;;22.90;56.69;102054.31;5006539;28;20033;-89
2022/06/10 13:44:53;;;;;;;7.43;3.65;;;;;;;22.83;56.56;102061.75;5006013;28;20076;-89
2022/06/10 13:47:32;;;;;;;8.55;3.50;;;;;;;22.70;57.50;102067.75;5001187;28;20026;-86
2022/06/10 13:50:17;;;;;;;9.88;3.38;;;;;;;22.51;57.62;102070.56;5005863;28;20104;-86
2022/06/10 13:53:00;;;;;;;11.70;3.05;;;;;;;22.34;59.19;102068.81;5012273;28;20479;-87
2022/06/10 13:55:31;;;;;;;7.50;3.53;;;;;;;22.23;58.82;102067.69;5012038;28;20026;-86
2022/06/10 13:58:05;;;;;;;11.82;3.70;;;;;;;22.13;58.76;102069.94;5028193;28;20033;-86
2022/06/10 14:00:36;;;;;;;11.73;3.60;;;;;;;22.07;58.77;102078.19;5003830;28;20025;-86
2022/06/10 14:03:04;;;;;;;9.70;3.30;;;;;;;22.00;58.89;102075.00;5013523;28;20021;-85
2022/06/10 14:05:30;;;;;;;8.38;3.45;;;;;;;21.98;58.96;102068.94;5011837;28;20113;-86
2022/06/10 14:08:00;;;;;;;9.20;3.40;;;;;;;21.99;61.17;102065.38;5009590;28;20373;-86
2022/06/10 14:10:42;;;;;;;8.07;3.47;;;;;;;22.08;59.60;102061.41;5029506;28;20021;-86
2022/06/10 14:13:16;;;;;;;12.10;3.63;;;;;;;22.19;59.88;102066.09;5011232;28;20508;-88
2022/06/10 14:15:48;;;;;;;;;;;;;;;22.34;60.39;102065.31;5007927;28;20040;-86
2022/06/10 14:18:17;;;;;;;11.98;3.50;;;;;;;22.41;59.29;102061.41;5008899;28;19971;-86
2022/06/10 14:20:44;;;;;;;6.45;3.40;;;;;;;22.47;57.22;102063.72;5010708;28;20068;-90
2022/06/10 14:23:28;;;;;;;9.77;3.30;;;;;;;22.59;59.25;102052.47;5011015;28;20025;-86
2022/06/10 14:26:12;;;;;;;;;;;;;;;22.74;59.69;102050.81;5008996;28;20423;-86
2022/06/10 14:28:40;;;;;;;8.35;3.60;;;;;;;22.86;58.82;102052.75;5009808;28;19931;-86
2022/06/10 14:31:29;;;;;;;11.43;3.38;;;;;;;22.97;58.75;102050.38;5001841;28;20104;-86
2022/06/10 14:33:57;;;;;;;9.68;3.75;;;;;;;23.00;59.29;102059.94;5000889;28;20109;-86
2022/06/10 14:36:25;;;;;;;11.40;3.90;;;;;;;23.07;59.07;102061.28;4999601;28;20026;-87
2022/06/10 14:39:25;;;;;;;8.75;3.60;;;;;;;23.03;60.43;102052.69;5010418;28;20049;-86
2022/06/10 14:41:58;;;;;;;7.55;3.60;;;;;;;23.04;58.13;102056.19;5003845;28;20045;-86
2022/06/10 14:44:32;;;;;;;10.85;4.28;;;;;;;23.06;58.24;102051.66;5006280;28;20036;-87
2022/06/10 14:47:14;;;;;;;10.82;4.40;;;;;;;22.96;57.92;102050.47;5008160;28;20112;-86
2022/06/10 14:49:46;;;;;;;12.48;4.20;;;;;;;22.80;58.64;102047.81;5004052;28;20083;-86
2022/06/10 14:52:25;;;;;;;10.00;3.70;;;;;;;22.68;58.39;102054.63;5009096;28;20040;-86
2022/06/10 14:54:51;;;;;;;10.98;3.97;;;;;;;22.41;59.51;102058.75;5009177;28;20599;-87
2022/06/10 14:57:22;;;;;;;9.02;4.00;;;;;;;22.24;61.24;102050.91;5007508;28;20025;-86
2022/06/10 14:59:48;;;;;;;10.15;4.00;;;;;;;22.11;61.23;102057.75;5011700;28;20037;-85
2022/06/10 15:02:14;;;;;;;11.70;3.88;;;;;;;22.01;62.47;102049.47;5009876;28;20080;-86
2022/06/10 15:06:14;;;;;;;9.52;4.20;;;;;;;22.01;61.21;102050.31;5020177;28;20237;-85
2022/06/10 15:07:25;;;;;;;10.38;4.35;;;;;;;22.05;60.76;102051.84;5024743;28;20084;-86
2022/06/10 15:09:51;;;;;;;12.85;4.18;;;;;;;22.09;62.54;102051.69;5010241;28;20091;-87
2022/06/10 15:12:26;;;;;;;9.93;4.35;;;;;;;22.11;61.51;102041.91;5012871;28;20021;-88
2022/06/10 15:14:53;;;;;;;9.20;3.75;;;;;;;22.28;62.45;102042.72;5014812;28;20479;-87
2022/06/10 15:17:26;;;;;;;10.73;4.20;;;;;;;22.36;64.49;102044.94;5014712;28;20381;-87
2022/06/10 15:19:52;;;;;;;10.20;4.20;;;;;;;22.43;62.57;102035.75;5015359;28;20027;-87
2022/06/10 15:22:25;;;;;;;12.18;4.32;;;;;;;22.51;62.31;102036.19;5012911;28;20033;-86
2022/06/10 15:24:51;;;;;;;10.05;4.35;;;;;;;22.51;64.52;102036.19;5014509;28;20475;-86
2022/06/10 15:27:17;;;;;;;9.07;4.35;;;;;;;22.54;62.21;102028.09;5015580;28;20071;-87
2022/06/10 15:29:59;;;;;;;8.23;4.07;;;;;;;22.55;64.11;102035.06;5016293;28;20047;-96
2022/06/10 15:32:25;;;;;;;7.28;4.10;;;;;;;22.46;64.10;102015.28;5015360;28;20476;-88
2022/06/10 15:44:25;;;;;;;10.40;4.50;;;;;;;22.77;61.07;102027.72;5022117;28;20376;-88
2022/06/10 15:46:52;;;;;;;9.95;4.55;;;;;;;22.73;61.04;102026.16;5030780;28;20087;-90
2022/06/10 15:49:20;;;;;;;10.77;4.40;;;;;;;22.62;60.31;102015.31;5031580;28;20510;-90
2022/06/10 15:51:54;;;;;;;8.82;4.57;;;;;;;22.65;59.21;102019.59;5017567;28;20034;-89
2022/06/10 15:57:06;;;;;;;10.68;4.13;;;;;;;22.67;59.76;102018.53;5031207;28;20025;-89
2022/06/10 15:57:19;;;;;;;10.65;3.83;;;;;;;22.66;60.43;102021.25;5023032;28;20034;-89
2022/06/10 15:59:57;;;;;;;11.48;3.72;;;;;;;22.62;60.09;102015.31;4986719;23;1190082;-93
2022/06/10 16:02:25;;;;;;;8.88;3.85;;;;;;;22.47;62.87;102005.56;5033187;28;20048;-93
2022/06/10 16:04:51;;;;;;;7.65;3.65;;;;;;;22.51;59.89;102015.06;5032523;28;20503;-95
2022/06/10 16:07:21;;;;;;;8.40;3.85;;;;;;;22.40;59.58;102007.69;5032978;28;20445;-94
2022/06/10 16:09:51;;;;;;;10.00;3.90;;;;;;;22.40;61.92;102022.69;5021339;28;20458;-92
2022/06/10 16:15:30;;;;;;;7.60;3.50;;;;;;;22.29;62.11;102009.22;5030175;28;20395;-93
2022/06/10 16:17:57;;;;;;;10.13;3.40;;;;;;;22.27;61.77;102014.59;5020949;28;20021;-92
2022/06/10 16:20:24;;;;;;;10.32;3.70;;;;;;;22.25;61.92;102011.16;5039614;28;20032;-93
2022/06/10 16:22:53;;;;;;;7.22;3.55;;;;;;;22.21;61.32;102001.72;5016969;28;20132;-93
2022/06/10 16:25:21;;;;;;;10.05;3.50;;;;;;;22.19;61.86;102008.00;5029833;28;20108;-93
2022/06/10 16:27:47;;;;;;;7.78;3.55;;;;;;;22.24;60.71;102006.84;5032827;28;20029;-94
2022/06/10 16:30:16;;;;;;;6.38;3.58;;;;;;;22.19;64.08;102016.78;5028568;28;20112;-93
2022/06/10 16:32:45;;;;;;;7.90;3.47;;;;;;;22.22;61.69;102008.69;5015083;28;20029;-93
2022/06/10 16:35:19;;;;;;;8.77;3.80;;;;;;;22.29;61.19;102015.38;5030778;28;20044;-93
2022/06/10 16:37:47;;;;;;;9.07;3.72;;;;;;;22.26;63.13;102002.31;5013307;28;20087;-93
2022/06/10 16:40:14;;;;;;;11.15;3.60;;;;;;;22.29;61.01;102003.94;5023735;28;20025;-94
2022/06/10 16:42:44;;;;;;;8.52;3.15;;;;;;;22.32;60.74;101999.31;5030576;28;20021;-93
2022/06/10 16:45:22;;;;;;;8.60;2.88;;;;;;;22.39;61.13;101998.06;5021756;28;20076;-92
2022/06/10 16:47:48;;;;;;;8.63;3.20;;;;;;;22.43;59.00;101990.84;5032473;28;20029;-94
2022/06/10 16:50:16;;;;;;;6.68;3.08;;;;;;;22.45;61.24;101997.72;5028295;28;20064;-94
2022/06/10 16:52:42;;;;;;;6.72;3.20;;;;;;;22.45;60.54;101992.44;5023720;28;20108;-93
2022/06/10 16:55:11;;;;;;;6.72;2.88;;;;;;;22.46;61.12;101995.94;5030882;28;20406;-93
2022/06/10 16:57:52;;;;;;;7.63;3.00;;;;;;;22.44;62.40;101993.41;5044924;28;20101;-92
2022/06/10 17:00:24;;;;;;;6.93;2.90;;;;;;;22.30;60.78;101985.38;5031799;28;20207;-92
2022/06/10 17:02:56;;;;;;;8.15;3.40;;;;;;;22.25;61.86;101997.94;5037663;28;20032;-92
2022/06/10 17:05:26;;;;;;;7.47;3.17;;;;;;;22.11;63.13;101994.38;5044677;28;20021;-92
2022/06/10 17:07:54;;;;;;;8.10;3.65;;;;;;;22.08;62.34;101999.81;5039301;28;20426;-92
2022/06/10 17:10:20;;;;;;;7.72;3.70;;;;;;;22.05;61.99;102000.81;5028149;28;20029;-92
2022/06/10 17:13:00;;;;;;;6.05;3.40;;;;;;;21.97;63.24;102000.38;5050885;28;20470;-92
2022/06/10 17:15:29;;;;;;;8.73;3.38;;;;;;;21.86;62.16;101986.84;5050865;28;20411;-93